createdAt,value
2023-02-05T00:00:10.271Z,102714.03
2023-02-05T00:02:12.685Z,102710.56
2023-02-05T00:04:16.366Z,102713.88
2023-02-05T00:06:18.637Z,102702.47
2023-02-05T00:08:20.404Z,102713.25
2023-02-05T00:10:23.502Z,102700.81
2023-02-05T00:12:25.163Z,102697.53
2023-02-05T00:14:26.793Z,102701.06
2023-02-05T00:16:28.799Z,102704.16
2023-02-05T00:18:30.610Z,102704.19
2023-02-05T00:20:32.241Z,102708.72
2023-02-05T00:22:33.935Z,102699.22
2023-02-05T00:24:35.590Z,102708.56
2023-02-05T00:26:42.161Z,102709.34
2023-02-05T00:28:44.052Z,102711.84
2023-02-05T00:30:45.845Z,102706.00
2023-02-05T00:32:47.474Z,102695.69
2023-02-05T00:34:49.335Z,102697.94
2023-02-05T00:36:50.938Z,102690.72
2023-02-05T00:38:52.622Z,102683.25
2023-02-05T00:40:54.279Z,102682.78
2023-02-05T00:42:57.177Z,102682.81
2023-02-05T00:44:58.739Z,102684.06
2023-02-05T00:47:00.547Z,102683.66
2023-02-05T00:49:02.046Z,102682.38
2023-02-05T00:51:03.872Z,102683.41
2023-02-05T00:53:05.439Z,102685.47
2023-02-05T00:55:07.945Z,102681.13
2023-02-05T00:57:09.796Z,102690.22
2023-02-05T00:59:12.721Z,102683.03
2023-02-05T01:01:14.923Z,102688.63
2023-02-05T01:03:16.687Z,102687.63
2023-02-05T01:05:18.481Z,102689.91
2023-02-05T01:07:20.575Z,102684.50
2023-02-05T01:09:22.421Z,102679.59
2023-02-05T01:11:24.052Z,102678.34
2023-02-05T01:13:25.705Z,102685.81
2023-02-05T01:15:28.617Z,102672.56
2023-02-05T01:17:30.187Z,102666.16
2023-02-05T01:19:33.339Z,102664.50
2023-02-05T01:21:34.974Z,102666.34
2023-02-05T01:23:36.546Z,102667.41
2023-02-05T01:25:38.157Z,102656.84
2023-02-05T01:27:39.663Z,102661.44
2023-02-05T01:29:41.334Z,102663.28
2023-02-05T01:31:44.600Z,102646.97
2023-02-05T01:33:46.213Z,102646.09
2023-02-05T01:35:48.518Z,102642.16
2023-02-05T01:37:50.144Z,102636.97
2023-02-05T01:39:51.671Z,102625.81
2023-02-05T01:41:53.188Z,102631.19
2023-02-05T01:44:09.418Z,102632.41
2023-02-05T01:46:20.282Z,102624.75
2023-02-05T01:48:27.633Z,102623.91
2023-02-05T01:50:32.308Z,102618.56
2023-02-05T01:52:33.888Z,102618.19
2023-02-05T01:54:39.330Z,102622.78
2023-02-05T01:56:45.232Z,102617.59
2023-02-05T01:58:51.913Z,102620.53
2023-02-05T02:00:53.787Z,102617.84
2023-02-05T02:02:55.781Z,102613.09
2023-02-05T02:07:11.388Z,102614.53
2023-02-05T02:09:12.925Z,102615.56
2023-02-05T02:11:18.008Z,102599.25
2023-02-05T02:13:22.423Z,102599.00
2023-02-05T02:15:27.027Z,102583.09
2023-02-05T02:17:29.978Z,102586.59
2023-02-05T02:19:34.297Z,102579.13
2023-02-05T02:22:14.783Z,102581.44
2023-02-05T02:24:49.004Z,102584.16
2023-02-05T02:27:02.628Z,102590.94
2023-02-05T02:29:05.685Z,102582.72
2023-02-05T02:31:11.298Z,102584.56
2023-02-05T02:33:19.137Z,102591.81
2023-02-05T02:35:27.260Z,102586.22
2023-02-05T02:37:36.068Z,102593.63
2023-02-05T02:39:42.311Z,102598.19
2023-02-05T02:41:51.624Z,102590.56
2023-02-05T02:43:56.554Z,102592.59
2023-02-05T02:46:04.344Z,102600.88
2023-02-05T02:48:07.246Z,102589.31
2023-02-05T02:50:13.997Z,102588.69
2023-02-05T02:52:19.368Z,102583.81
2023-02-05T02:54:22.204Z,102577.63
2023-02-05T02:56:26.122Z,102587.97
2023-02-05T02:58:32.598Z,102580.13
2023-02-05T03:00:34.279Z,102577.88
2023-02-05T03:02:38.204Z,102579.13
2023-02-05T03:04:42.693Z,102566.31
2023-02-05T03:06:48.174Z,102561.09
2023-02-05T03:08:54.495Z,102566.25
2023-02-05T03:11:01.737Z,102559.81
2023-02-05T03:13:03.370Z,102562.31
2023-02-05T03:15:06.514Z,102562.09
2023-02-05T03:17:08.077Z,102553.84
2023-02-05T03:19:10.985Z,102549.50
2023-02-05T03:21:17.255Z,102544.53
2023-02-05T03:23:18.873Z,102529.22
2023-02-05T03:25:22.691Z,102534.03
2023-02-05T03:27:24.298Z,102535.44
2023-02-05T03:29:28.048Z,102538.94
2023-02-05T03:31:41.295Z,102538.13
2023-02-05T03:33:54.601Z,102533.41
2023-02-05T03:36:04.960Z,102534.22
2023-02-05T03:38:29.296Z,102530.50
2023-02-05T03:40:38.019Z,102524.28
2023-02-05T03:42:49.045Z,102530.44
2023-02-05T03:45:07.609Z,102537.25
2023-02-05T03:47:16.078Z,102550.88
2023-02-05T03:49:21.227Z,102548.41
2023-02-05T03:51:35.375Z,102549.91
2023-02-05T03:53:43.676Z,102540.41
2023-02-05T03:55:49.953Z,102535.84
2023-02-05T03:57:58.832Z,102531.50
2023-02-05T04:00:03.879Z,102526.34
2023-02-05T04:02:06.076Z,102530.47
2023-02-05T04:04:07.702Z,102525.91
2023-02-05T04:06:09.424Z,102527.97
2023-02-05T04:08:12.335Z,102529.81
2023-02-05T04:10:14.106Z,102534.16
2023-02-05T04:12:15.672Z,102539.72
2023-02-05T04:14:17.200Z,102524.84
2023-02-05T04:16:18.754Z,102526.72
2023-02-05T04:18:20.508Z,102529.78
2023-02-05T04:20:22.207Z,102531.66
2023-02-05T04:22:23.758Z,102528.75
2023-02-05T04:24:26.881Z,102528.53
2023-02-05T04:26:28.433Z,102538.88
2023-02-05T04:28:29.993Z,102543.81
2023-02-05T04:30:31.825Z,102550.00
2023-02-05T04:32:33.372Z,102553.72
2023-02-05T04:34:34.904Z,102558.91
2023-02-05T04:36:36.447Z,102558.06
2023-02-05T04:38:37.977Z,102550.22
2023-02-05T04:40:40.929Z,102547.53
2023-02-05T04:42:42.498Z,102554.34
2023-02-05T04:44:44.009Z,102553.09
2023-02-05T04:46:48.670Z,102543.78
2023-02-05T04:48:50.272Z,102542.94
2023-02-05T04:50:51.810Z,102543.81
2023-02-05T04:52:53.365Z,102556.66
2023-02-05T04:54:54.891Z,102549.19
2023-02-05T04:56:57.772Z,102539.25
2023-02-05T04:58:59.330Z,102543.81
2023-02-05T05:01:01.036Z,102547.28
2023-02-05T05:03:02.620Z,102550.41
2023-02-05T05:05:04.558Z,102542.56
2023-02-05T05:07:06.198Z,102551.28
2023-02-05T05:09:07.720Z,102556.03
2023-02-05T05:11:11.961Z,102549.22
2023-02-05T05:13:14.837Z,102533.28
2023-02-05T05:15:16.554Z,102533.13
2023-02-05T05:17:18.118Z,102538.66
2023-02-05T05:19:19.659Z,102536.81
2023-02-05T05:21:23.550Z,102531.66
2023-02-05T05:23:25.558Z,102532.47
2023-02-05T05:25:27.065Z,102536.59
2023-02-05T05:27:28.752Z,102539.09
2023-02-05T05:29:31.641Z,102532.69
2023-02-05T05:31:33.196Z,102530.81
2023-02-05T05:33:34.873Z,102530.00
2023-02-05T05:35:37.008Z,102534.91
2023-02-05T05:37:38.514Z,102537.22
2023-02-05T05:39:40.026Z,102537.03
2023-02-05T05:41:41.551Z,102541.97
2023-02-05T05:43:43.087Z,102541.97
2023-02-05T05:45:46.155Z,102545.09
2023-02-05T05:47:47.912Z,102534.97
2023-02-05T05:49:49.775Z,102536.44
2023-02-05T05:51:51.327Z,102526.31
2023-02-05T05:53:52.892Z,102524.22
2023-02-05T05:55:54.384Z,102521.75
2023-02-05T05:57:55.875Z,102525.28
2023-02-05T05:59:57.396Z,102538.66
2023-02-05T06:02:00.555Z,102537.22
2023-02-05T06:04:04.161Z,102537.44
2023-02-05T06:06:07.797Z,102529.16
2023-02-05T06:08:09.361Z,102520.28
2023-02-05T06:10:10.928Z,102532.88
2023-02-05T06:12:12.480Z,102534.94
2023-02-05T06:14:13.983Z,102532.47
2023-02-05T06:16:15.496Z,102531.66
2023-02-05T06:18:18.680Z,102528.75
2023-02-05T06:20:23.438Z,102525.88
2023-02-05T06:22:26.222Z,102533.53
2023-02-05T06:24:29.567Z,102535.41
2023-02-05T06:26:32.590Z,102530.44
2023-02-05T06:28:34.135Z,102543.47
2023-02-05T06:30:35.746Z,102547.19
2023-02-05T06:32:37.216Z,102545.09
2023-02-05T06:34:40.073Z,102541.16
2023-02-05T06:36:44.389Z,102549.38
2023-02-05T06:38:46.002Z,102556.22
2023-02-05T06:40:48.212Z,102554.75
2023-02-05T06:42:49.901Z,102560.13
2023-02-05T06:44:51.470Z,102557.03
2023-02-05T06:46:52.984Z,102554.16
2023-02-05T06:48:54.551Z,102547.13
2023-02-05T06:50:57.418Z,102539.88
2023-02-05T06:52:59.066Z,102538.63
2023-02-05T06:55:00.675Z,102539.75
2023-02-05T06:57:02.242Z,102531.72
2023-02-05T06:59:04.154Z,102531.94
2023-02-05T07:01:05.802Z,102516.66
2023-02-05T07:03:07.332Z,102509.44
2023-02-05T07:05:09.212Z,102521.84
2023-02-05T07:07:12.072Z,102515.66
2023-02-05T07:09:13.585Z,102519.16
2023-02-05T07:11:15.208Z,102521.84
2023-02-05T07:13:16.734Z,102516.44
2023-02-05T07:15:18.474Z,102522.44
2023-02-05T07:17:19.981Z,102524.31
2023-02-05T07:19:21.700Z,102518.50
2023-02-05T07:21:23.186Z,102515.81
2023-02-05T07:23:26.033Z,102521.81
2023-02-05T07:25:27.555Z,102522.69
2023-02-05T07:27:30.714Z,102525.13
2023-02-05T07:29:32.363Z,102513.38
2023-02-05T07:31:34.061Z,102515.06
2023-02-05T07:33:35.746Z,102521.84
2023-02-05T07:35:38.112Z,102521.69
2023-02-05T07:37:39.637Z,102516.09
2023-02-05T07:39:42.494Z,102521.25
2023-02-05T07:41:44.028Z,102513.63
2023-02-05T07:43:45.565Z,102515.53
2023-02-05T07:45:47.259Z,102518.78
2023-02-05T07:47:48.970Z,102522.69
2023-02-05T07:49:50.591Z,102519.22
2023-02-05T07:51:52.311Z,102516.56
2023-02-05T07:53:54.015Z,102507.66
2023-02-05T07:55:57.135Z,102502.09
2023-02-05T07:57:58.957Z,102497.53
2023-02-05T08:00:00.602Z,102491.38
2023-02-05T08:02:02.610Z,102483.31
2023-02-05T08:04:04.650Z,102476.50
2023-02-05T08:06:07.717Z,102473.84
2023-02-05T08:08:11.863Z,102480.25
2023-02-05T08:10:14.628Z,102486.03
2023-02-05T08:12:17.496Z,102491.59
2023-02-05T08:14:19.025Z,102492.66
2023-02-05T08:16:21.219Z,102490.38
2023-02-05T08:18:23.440Z,102491.00
2023-02-05T08:20:24.984Z,102490.78
2023-02-05T08:22:26.532Z,102478.00
2023-02-05T08:24:28.210Z,102475.09
2023-02-05T08:26:29.802Z,102497.63
2023-02-05T08:28:32.660Z,102491.00
2023-02-05T08:30:34.283Z,102490.00
2023-02-05T08:32:37.128Z,102489.38
2023-02-05T08:34:38.609Z,102487.72
2023-02-05T08:36:40.137Z,102476.59
2023-02-05T08:38:41.912Z,102478.81
2023-02-05T08:40:43.448Z,102470.59
2023-02-05T08:42:45.001Z,102469.16
2023-02-05T08:44:47.914Z,102465.22
2023-02-05T08:46:50.629Z,102469.97
2023-02-05T08:48:53.283Z,102467.28
2023-02-05T08:50:54.849Z,102467.06
2023-02-05T08:52:56.429Z,102461.28
2023-02-05T08:54:58.513Z,102462.94
2023-02-05T08:57:00.092Z,102463.97
2023-02-05T08:59:01.674Z,102454.06
2023-02-05T09:01:06.893Z,102461.91
2023-02-05T09:03:08.415Z,102459.22
2023-02-05T09:05:10.097Z,102457.56
2023-02-05T09:07:11.604Z,102454.66
2023-02-05T09:09:13.476Z,102450.94
2023-02-05T09:11:21.077Z,102441.44
2023-02-05T09:13:22.593Z,102442.88
2023-02-05T09:15:24.168Z,102439.78
2023-02-05T09:17:27.136Z,102438.34
2023-02-05T09:19:29.053Z,102431.13
2023-02-05T09:21:30.654Z,102429.69
2023-02-05T09:23:32.234Z,102432.97
2023-02-05T09:25:34.000Z,102432.13
2023-02-05T09:27:35.905Z,102438.50
2023-02-05T09:29:37.740Z,102437.06
2023-02-05T09:31:41.088Z,102443.84
2023-02-05T09:33:46.396Z,102440.75
2023-02-05T09:35:48.101Z,102444.88
2023-02-05T09:37:49.778Z,102438.72
2023-02-05T09:42:21.077Z,102440.78
2023-02-05T09:44:43.006Z,102436.44
2023-02-05T09:46:53.349Z,102440.81
2023-02-05T09:49:00.881Z,102434.81
2023-02-05T09:51:03.440Z,102441.03
2023-02-05T09:53:11.510Z,102432.94
2023-02-05T09:55:19.838Z,102438.50
2023-02-05T09:57:32.144Z,102433.59
2023-02-05T09:59:34.170Z,102437.72
2023-02-05T10:01:44.331Z,102437.88
2023-02-05T10:03:48.496Z,102442.84
2023-02-05T10:06:07.879Z,102439.13
2023-02-05T10:08:19.207Z,102437.47
2023-02-05T10:10:26.309Z,102446.38
2023-02-05T10:12:40.361Z,102430.84
2023-02-05T10:14:51.986Z,102426.53
2023-02-05T10:17:09.842Z,102421.38
2023-02-05T10:19:26.814Z,102421.34
2023-02-05T10:21:47.764Z,102411.00
2023-02-05T10:24:16.480Z,102404.63
2023-02-05T10:26:18.217Z,102401.75
2023-02-05T10:28:35.810Z,102404.84
2023-02-05T10:30:47.610Z,102401.16
2023-02-05T10:32:56.168Z,102396.38
2023-02-05T10:35:00.678Z,102392.66
2023-02-05T10:37:09.186Z,102388.13
2023-02-05T10:39:14.237Z,102387.06
2023-02-05T10:41:24.570Z,102384.63
2023-02-05T10:43:30.065Z,102384.16
2023-02-05T10:45:31.958Z,102391.38
2023-02-05T10:48:02.413Z,102384.97
2023-02-05T10:50:14.021Z,102381.09
2023-02-05T10:52:17.451Z,102377.75
2023-02-05T10:54:26.307Z,102368.50
2023-02-05T10:56:27.936Z,102376.09
2023-02-05T10:58:39.169Z,102367.00
2023-02-05T11:00:40.923Z,102370.53
2023-02-05T11:02:45.936Z,102363.69
2023-02-05T11:04:52.605Z,102365.56
2023-02-05T11:06:54.457Z,102363.47
2023-02-05T11:08:57.554Z,102371.69
2023-02-05T11:10:59.153Z,102373.16
2023-02-05T11:13:05.086Z,102363.63
2023-02-05T11:15:19.615Z,102358.69
2023-02-05T11:17:22.967Z,102357.06
2023-02-05T11:19:27.678Z,102351.22
2023-02-05T11:21:48.651Z,102358.00
2023-02-05T11:23:55.414Z,102346.63
2023-02-05T11:25:59.686Z,102351.38
2023-02-05T11:28:03.291Z,102350.50
2023-02-05T11:30:49.614Z,102344.66
2023-02-05T11:32:46.741Z,102341.53
2023-02-05T11:34:48.414Z,102331.44
2023-02-05T11:36:52.216Z,102335.38
2023-02-05T11:38:54.988Z,102342.81
2023-02-05T11:41:00.621Z,102336.88
2023-02-05T11:43:07.508Z,102338.50
2023-02-05T11:45:17.332Z,102340.19
2023-02-05T11:47:24.935Z,102328.44
2023-02-05T11:49:31.183Z,102330.28
2023-02-05T11:51:45.320Z,102332.53
2023-02-05T11:53:57.308Z,102338.72
2023-02-05T11:56:07.433Z,102331.66
2023-02-05T11:58:25.136Z,102328.53
2023-02-05T12:00:36.622Z,102327.69
2023-02-05T12:02:39.491Z,102328.34
2023-02-05T12:04:47.471Z,102316.41
2023-02-05T12:06:52.454Z,102321.78
2023-02-05T12:08:54.059Z,102320.34
2023-02-05T12:11:08.444Z,102320.13
2023-02-05T12:13:21.492Z,102324.84
2023-02-05T12:15:26.519Z,102311.25
2023-02-05T12:17:35.235Z,102308.56
2023-02-05T12:19:46.542Z,102304.03
2023-02-05T12:21:58.280Z,102309.81
2023-02-05T12:24:37.200Z,102306.09
2023-02-05T12:26:44.001Z,102305.25
2023-02-05T12:28:54.246Z,102301.09
2023-02-05T12:31:08.163Z,102297.00
2023-02-05T12:33:28.351Z,102291.63
2023-02-05T12:35:44.872Z,102291.56
2023-02-05T12:37:54.191Z,102293.00
2023-02-05T12:40:07.148Z,102294.03
2023-02-05T12:42:20.918Z,102287.41
2023-02-05T12:44:38.070Z,102286.41
2023-02-05T12:46:51.217Z,102293.28
2023-02-05T12:49:09.912Z,102282.03
2023-02-05T12:51:30.968Z,102289.41
2023-02-05T12:53:51.323Z,102291.72
2023-02-05T12:56:13.024Z,102294.78
2023-02-05T12:58:19.768Z,102294.38
2023-02-05T13:00:25.815Z,102288.94
2023-02-05T13:02:33.481Z,102283.19
2023-02-05T13:04:40.212Z,102277.19
2023-02-05T13:06:47.735Z,102282.56
2023-02-05T13:08:53.048Z,102274.50
2023-02-05T13:10:59.708Z,102279.28
2023-02-05T13:13:06.252Z,102274.75
2023-02-05T13:15:16.508Z,102276.78
2023-02-05T13:17:22.814Z,102278.41
2023-02-05T13:19:28.277Z,102281.53
2023-02-05T13:21:30.317Z,102278.19
2023-02-05T13:23:35.187Z,102277.97
2023-02-05T13:25:40.135Z,102275.06
2023-02-05T13:27:46.485Z,102272.00
2023-02-05T13:29:51.617Z,102277.31
2023-02-05T13:32:10.566Z,102268.59
2023-02-05T13:34:17.769Z,102272.94
2023-02-05T13:36:47.170Z,102269.03
2023-02-05T13:39:08.451Z,102270.69
2023-02-05T13:41:28.522Z,102276.41
2023-02-05T13:44:01.954Z,102262.31
2023-02-05T13:46:33.919Z,102266.88
2023-02-05T13:49:41.561Z,102262.13
2023-02-05T13:51:53.249Z,102255.47
2023-02-05T13:54:13.988Z,102250.69
2023-02-05T13:56:30.900Z,102252.16
2023-02-05T13:58:35.688Z,102259.50
2023-02-05T14:00:40.230Z,102251.25
2023-02-05T14:02:44.197Z,102250.81
2023-02-05T14:04:48.394Z,102250.22
2023-02-05T14:06:58.187Z,102245.81
2023-02-05T14:09:03.485Z,102245.00
2023-02-05T14:11:06.165Z,102246.63
2023-02-05T14:13:17.762Z,102239.63
2023-02-05T14:15:35.078Z,102246.19
2023-02-05T14:17:54.527Z,102249.84
2023-02-05T14:19:57.620Z,102252.91
2023-02-05T14:22:04.099Z,102258.75
2023-02-05T14:24:27.231Z,102260.78
2023-02-05T14:26:44.800Z,102266.91
2023-02-05T14:28:49.217Z,102276.38
2023-02-05T14:30:52.265Z,102269.97
2023-02-05T14:32:59.708Z,102278.19
2023-02-05T14:35:01.988Z,102277.75
2023-02-05T14:37:05.750Z,102278.78
2023-02-05T14:39:20.419Z,102277.88
2023-02-05T14:41:25.034Z,102281.19
2023-02-05T14:43:32.179Z,102284.69
2023-02-05T14:45:35.080Z,102291.94
2023-02-05T14:47:40.522Z,102288.50
2023-02-05T14:49:45.379Z,102291.25
2023-02-05T14:51:52.288Z,102299.41
2023-02-05T14:53:59.354Z,102301.53
2023-02-05T14:56:02.016Z,102293.31
2023-02-05T14:58:07.174Z,102295.19
2023-02-05T15:00:24.510Z,102293.53
2023-02-05T15:03:14.883Z,102298.38
2023-02-05T15:05:21.752Z,102299.38
2023-02-05T15:07:27.416Z,102292.38
2023-02-05T15:09:41.251Z,102300.69
2023-02-05T15:11:55.127Z,102299.88
2023-02-05T15:14:25.689Z,102309.34
2023-02-05T15:16:27.282Z,102319.34
2023-02-05T15:18:32.102Z,102308.84
2023-02-05T15:20:34.933Z,102319.22
2023-02-05T15:22:40.256Z,102324.31
2023-02-05T15:24:44.398Z,102324.25
2023-02-05T15:26:51.764Z,102313.66
2023-02-05T15:28:59.423Z,102317.97
2023-02-05T15:31:18.630Z,102324.56
2023-02-05T15:33:28.572Z,102328.91
2023-02-05T15:35:33.399Z,102328.66
2023-02-05T15:37:41.999Z,102334.00
2023-02-05T15:39:51.127Z,102338.16
2023-02-05T15:41:56.022Z,102335.69
2023-02-05T15:43:59.945Z,102343.09
2023-02-05T15:46:05.486Z,102338.50
2023-02-05T15:48:12.451Z,102337.03
2023-02-05T15:50:15.238Z,102343.16
2023-02-05T15:52:20.742Z,102343.72
2023-02-05T15:54:22.947Z,102340.19
2023-02-05T15:56:28.131Z,102349.91
2023-02-05T15:58:29.958Z,102354.16
2023-02-05T16:00:36.987Z,102346.63
2023-02-05T16:02:38.544Z,102350.97
2023-02-05T16:04:40.155Z,102353.44
2023-02-05T16:06:41.831Z,102355.75
2023-02-05T16:08:46.722Z,102361.34
2023-02-05T16:10:53.031Z,102360.38
2023-02-05T16:12:59.928Z,102368.47
2023-02-05T16:15:03.360Z,102368.91
2023-02-05T16:17:11.042Z,102367.25
2023-02-05T16:19:20.933Z,102370.78
2023-02-05T16:21:25.726Z,102368.88
2023-02-05T16:23:33.843Z,102367.41
2023-02-05T16:25:43.440Z,102366.50
2023-02-05T16:27:48.752Z,102373.09
2023-02-05T16:29:55.686Z,102372.88
2023-02-05T16:32:01.584Z,102384.66
2023-02-05T16:34:11.887Z,102383.84
2023-02-05T16:36:19.211Z,102391.50
2023-02-05T16:38:22.223Z,102388.56
2023-02-05T16:40:32.774Z,102395.38
2023-02-05T16:42:38.202Z,102400.38
2023-02-05T16:44:40.354Z,102406.28
2023-02-05T16:46:43.309Z,102409.88
2023-02-05T16:48:49.555Z,102415.78
2023-02-05T16:50:51.844Z,102424.34
2023-02-05T16:52:56.493Z,102424.94
2023-02-05T16:54:58.814Z,102427.38
2023-02-05T16:57:09.222Z,102428.13
2023-02-05T16:59:17.911Z,102430.72
2023-02-05T17:01:24.639Z,102435.41
2023-02-05T17:03:32.087Z,102438.16
2023-02-05T17:05:36.508Z,102445.00
2023-02-05T17:07:38.078Z,102452.28
2023-02-05T17:09:39.990Z,102459.97
2023-02-05T17:11:42.782Z,102453.78
2023-02-05T17:13:45.117Z,102456.84
2023-02-05T17:15:46.739Z,102455.97
2023-02-05T17:17:50.257Z,102454.91
2023-02-05T17:20:22.821Z,102453.25
2023-02-05T17:22:24.333Z,102463.63
2023-02-05T17:24:26.120Z,102460.31
2023-02-05T17:26:30.880Z,102463.25
2023-02-05T17:28:32.589Z,102467.16
2023-02-05T17:30:35.113Z,102471.09
2023-02-05T17:32:37.367Z,102471.94
2023-02-05T17:34:38.867Z,102470.91
2023-02-05T17:36:41.925Z,102472.75
2023-02-05T17:38:43.712Z,102473.13
2023-02-05T17:40:45.273Z,102478.56
2023-02-05T17:42:47.534Z,102475.06
2023-02-05T17:44:49.797Z,102479.00
2023-02-05T17:46:51.517Z,102483.53
2023-02-05T17:48:53.137Z,102484.59
2023-02-05T17:50:54.718Z,102489.34
2023-02-05T17:52:57.603Z,102488.47
2023-02-05T17:54:59.208Z,102493.16
2023-02-05T17:57:12.158Z,102485.53
2023-02-05T17:59:15.932Z,102487.59
2023-02-05T18:01:18.304Z,102487.59
2023-02-05T18:03:19.831Z,102493.03
2023-02-05T18:05:22.671Z,102498.41
2023-02-05T18:07:29.334Z,102491.38
2023-02-05T18:09:32.177Z,102485.03
2023-02-05T18:11:33.850Z,102487.06
2023-02-05T18:13:35.755Z,102497.59
2023-02-05T18:15:37.507Z,102500.06
2023-02-05T18:17:39.635Z,102498.19
2023-02-05T18:19:41.170Z,102496.94
2023-02-05T18:21:42.741Z,102504.16
2023-02-05T18:23:44.298Z,102499.78
2023-02-05T18:25:47.163Z,102511.09
2023-02-05T18:27:48.771Z,102518.13
2023-02-05T18:29:50.430Z,102517.47
2023-02-05T18:31:51.921Z,102521.00
2023-02-05T18:33:53.413Z,102530.91
2023-02-05T18:36:00.338Z,102527.56
2023-02-05T18:38:01.885Z,102527.56
2023-02-05T18:40:04.003Z,102539.41
2023-02-05T18:42:06.941Z,102535.88
2023-02-05T18:44:08.642Z,102538.97
2023-02-05T18:46:12.360Z,102535.25
2023-02-05T18:48:14.068Z,102540.44
2023-02-05T18:50:16.361Z,102545.34
2023-02-05T18:52:17.930Z,102542.09
2023-02-05T18:54:19.511Z,102534.19
2023-02-05T18:56:22.964Z,102543.69
2023-02-05T18:58:25.879Z,102540.44
2023-02-05T19:00:27.551Z,102554.06
2023-02-05T19:02:29.025Z,102554.44
2023-02-05T19:04:30.555Z,102557.56
2023-02-05T19:06:32.576Z,102557.56
2023-02-05T19:08:34.267Z,102555.47
2023-02-05T19:10:36.463Z,102561.47
2023-02-05T19:12:38.160Z,102567.72
2023-02-05T19:14:41.018Z,102563.22
2023-02-05T19:16:43.696Z,102566.09
2023-02-05T19:18:46.160Z,102564.44
2023-02-05T19:20:47.698Z,102561.75
2023-02-05T19:22:52.368Z,102560.47
2023-02-05T19:24:53.884Z,102559.25
2023-02-05T19:26:56.225Z,102558.22
2023-02-05T19:28:59.827Z,102562.97
2023-02-05T19:31:03.920Z,102559.00
2023-02-05T19:33:05.582Z,102560.66
2023-02-05T19:35:07.794Z,102570.56
2023-02-05T19:37:11.861Z,102571.84
2023-02-05T19:39:14.581Z,102578.25
2023-02-05T19:41:17.651Z,102582.81
2023-02-05T19:43:19.214Z,102587.13
2023-02-05T19:45:20.773Z,102595.81
2023-02-05T19:47:23.637Z,102592.06
2023-02-05T19:49:25.237Z,102602.00
2023-02-05T19:51:26.863Z,102605.72
2023-02-05T19:53:28.397Z,102599.97
2023-02-05T19:55:31.325Z,102605.09
2023-02-05T19:57:33.895Z,102600.78
2023-02-05T19:59:35.546Z,102602.88
2023-02-05T20:01:38.363Z,102605.75
2023-02-05T20:03:42.174Z,102606.16
2023-02-05T20:05:43.660Z,102610.94
2023-02-05T20:07:48.624Z,102612.38
2023-02-05T20:09:50.146Z,102624.16
2023-02-05T20:11:52.023Z,102620.66
2023-02-05T20:13:53.698Z,102622.91
2023-02-05T20:15:55.324Z,102620.66
2023-02-05T20:17:58.508Z,102629.94
2023-02-05T20:20:12.338Z,102626.47
2023-02-05T20:22:17.382Z,102627.09
2023-02-05T20:24:18.961Z,102627.09
2023-02-05T20:26:21.228Z,102632.69
2023-02-05T20:28:23.359Z,102628.94
2023-02-05T20:30:25.081Z,102633.06
2023-02-05T20:32:26.768Z,102630.19
2023-02-05T20:34:28.782Z,102636.16
2023-02-05T20:36:33.587Z,102643.41
2023-02-05T20:38:35.402Z,102643.63
2023-02-05T20:40:37.078Z,102655.78
2023-02-05T20:42:38.763Z,102654.75
2023-02-05T20:44:41.172Z,102661.28
2023-02-05T20:46:42.856Z,102660.66
2023-02-05T20:48:44.710Z,102666.84
2023-02-05T20:50:46.297Z,102657.88
2023-02-05T20:52:49.217Z,102654.78
2023-02-05T20:54:50.946Z,102661.13
2023-02-05T20:56:53.368Z,102659.50
2023-02-05T20:58:57.760Z,102657.41
2023-02-05T21:01:05.763Z,102661.88
2023-02-05T21:03:07.260Z,102666.84
2023-02-05T21:05:08.755Z,102660.09
2023-02-05T21:07:10.519Z,102671.88
2023-02-05T21:09:14.486Z,102676.09
2023-02-05T21:11:17.907Z,102673.38
2023-02-05T21:13:19.560Z,102681.88
2023-02-05T21:15:21.094Z,102690.78
2023-02-05T21:17:22.572Z,102700.69
2023-02-05T21:19:24.096Z,102693.06
2023-02-05T21:21:27.749Z,102709.13
2023-02-05T21:23:29.241Z,102707.44
2023-02-05T21:25:35.121Z,102707.16
2023-02-05T21:27:36.637Z,102709.78
2023-02-05T21:29:38.304Z,102708.59
2023-02-05T21:31:42.034Z,102707.69
2023-02-05T21:33:43.618Z,102713.81
2023-02-05T21:35:45.174Z,102710.69
2023-02-05T21:37:46.702Z,102717.47
2023-02-05T21:39:49.437Z,102724.41
2023-02-05T21:41:54.049Z,102718.25
2023-02-05T21:43:58.158Z,102725.31
2023-02-05T21:46:01.326Z,102717.47
2023-02-05T21:48:02.910Z,102716.16
2023-02-05T21:50:05.838Z,102720.88
2023-02-05T21:52:08.115Z,102726.44
2023-02-05T21:54:10.778Z,102732.16
2023-02-05T21:56:15.582Z,102729.75
2023-02-05T21:58:18.546Z,102742.09
2023-02-05T22:00:20.386Z,102740.91
2023-02-05T22:02:21.946Z,102735.66
2023-02-05T22:04:23.547Z,102742.53
2023-02-05T22:06:27.246Z,102735.25
2023-02-05T22:08:30.660Z,102735.41
2023-02-05T22:10:32.153Z,102730.47
2023-02-05T22:12:33.663Z,102725.06
2023-02-05T22:14:36.559Z,102728.16
2023-02-05T22:16:38.711Z,102733.09
2023-02-05T22:18:41.196Z,102731.44
2023-02-05T22:20:42.639Z,102733.50
2023-02-05T22:22:44.304Z,102732.81
2023-02-05T22:24:45.835Z,102734.19
2023-02-05T22:26:47.678Z,102734.41
2023-02-05T22:28:49.520Z,102745.75
2023-02-05T22:30:58.732Z,102745.72
2023-02-05T22:33:00.257Z,102748.09
2023-02-05T22:35:01.795Z,102752.34
2023-02-05T22:37:03.271Z,102758.22
2023-02-05T22:39:06.601Z,102767.34
2023-02-05T22:41:09.816Z,102760.84
2023-02-05T22:43:11.353Z,102766.41
2023-02-05T22:45:12.959Z,102771.19
2023-02-05T22:47:15.856Z,102776.59
2023-02-05T22:49:17.345Z,102779.50
2023-02-05T22:51:20.677Z,102780.13
2023-02-05T22:53:22.151Z,102787.03
2023-02-05T22:55:23.583Z,102780.41
2023-02-05T22:57:25.163Z,102799.06
2023-02-05T22:59:26.827Z,102801.06
2023-02-05T23:01:30.641Z,102802.47
2023-02-05T23:03:33.768Z,102803.34
2023-02-05T23:05:35.585Z,102798.78
2023-02-05T23:07:37.474Z,102796.28
2023-02-05T23:09:38.994Z,102800.41
2023-02-05T23:11:40.634Z,102796.91
2023-02-05T23:13:42.292Z,102800.25
2023-02-05T23:15:43.826Z,102801.06
2023-02-05T23:17:45.376Z,102803.41
2023-02-05T23:19:50.804Z,102803.69
2023-02-05T23:21:52.349Z,102801.19
2023-02-05T23:23:54.100Z,102804.94
2023-02-05T23:25:55.546Z,102812.38
2023-02-05T23:27:57.126Z,102812.84
2023-02-05T23:29:58.757Z,102809.16
2023-02-05T23:32:00.241Z,102809.00
2023-02-05T23:34:01.838Z,102811.72
2023-02-05T23:36:06.860Z,102815.91
2023-02-05T23:38:08.566Z,102811.75
2023-02-05T23:40:11.090Z,102821.28
2023-02-05T23:42:12.614Z,102806.13
2023-02-05T23:44:16.468Z,102805.63
2023-02-05T23:46:18.022Z,102807.41
2023-02-05T23:48:20.037Z,102812.28
2023-02-05T23:50:21.581Z,102812.50